createdAt,value
2023-01-20T00:00:49.711Z,3.53
2023-01-20T00:03:37.256Z,3.87
2023-01-20T00:06:27.659Z,3.53
2023-01-20T00:09:16.942Z,3.40
2023-01-20T00:12:04.531Z,3.80
2023-01-20T00:14:51.894Z,3.93
2023-01-20T00:17:39.272Z,3.50
2023-01-20T00:20:26.689Z,2.93
2023-01-20T00:23:14.119Z,3.77
2023-01-20T00:26:08.247Z,3.57
2023-01-20T00:28:57.497Z,3.73
2023-01-20T00:31:44.902Z,3.53
2023-01-20T00:34:32.337Z,4.63
2023-01-20T00:37:19.659Z,4.93
2023-01-20T00:40:07.403Z,4.13
2023-01-20T00:42:54.736Z,4.53
2023-01-20T00:45:42.129Z,4.37
2023-01-20T00:48:29.803Z,4.47
2023-01-20T00:51:17.261Z,5.00
2023-01-20T00:54:04.607Z,6.00
2023-01-20T00:56:51.942Z,6.00
2023-01-20T00:59:39.298Z,5.63
2023-01-20T01:02:26.782Z,5.53
2023-01-20T01:05:14.623Z,6.07
2023-01-20T01:08:02.117Z,5.77
2023-01-20T01:10:49.491Z,5.67
2023-01-20T01:13:38.431Z,6.40
2023-01-20T01:16:25.857Z,5.50
2023-01-20T01:19:13.223Z,5.93
2023-01-20T01:22:00.633Z,5.87
2023-01-20T01:24:48.336Z,5.97
2023-01-20T01:27:35.972Z,6.00
2023-01-20T01:30:23.396Z,7.10
2023-01-20T01:33:10.825Z,5.57
2023-01-20T01:35:59.012Z,5.67
2023-01-20T01:38:57.022Z,6.57
2023-01-20T01:41:46.285Z,6.60
2023-01-20T01:44:35.104Z,5.73
2023-01-20T01:47:22.517Z,5.87
2023-01-20T01:50:11.760Z,6.63
2023-01-20T01:52:59.267Z,6.53
2023-01-20T01:55:48.279Z,6.57
2023-01-20T01:58:37.549Z,6.93
2023-01-20T02:01:25.864Z,7.13
2023-01-20T02:04:17.628Z,7.90
2023-01-20T02:07:18.190Z,8.57
2023-01-20T02:10:05.852Z,8.07
2023-01-20T02:12:53.478Z,7.33
2023-01-20T02:15:56.491Z,8.47
2023-01-20T02:18:43.862Z,9.60
2023-01-20T02:21:40.502Z,9.40
2023-01-20T02:24:41.660Z,9.57
2023-01-20T02:27:47.188Z,9.43
2023-01-20T02:30:43.683Z,10.37
2023-01-20T02:33:32.955Z,11.23
2023-01-20T02:36:29.489Z,10.43
2023-01-20T02:39:26.910Z,11.77
2023-01-20T02:42:17.056Z,12.20
2023-01-20T02:45:07.515Z,12.90
2023-01-20T02:47:59.952Z,13.40
2023-01-20T02:50:50.085Z,15.77
2023-01-20T02:53:41.293Z,16.03
2023-01-20T02:56:30.143Z,16.60
2023-01-20T02:59:19.189Z,16.13
2023-01-20T03:02:11.652Z,17.30
2023-01-20T03:05:04.716Z,19.50
2023-01-20T03:07:52.933Z,20.00
2023-01-20T03:10:41.900Z,22.47
2023-01-20T03:13:33.190Z,21.97
2023-01-20T03:16:21.989Z,24.07
2023-01-20T03:19:10.378Z,22.87
2023-01-20T03:21:58.351Z,22.93
2023-01-20T03:24:47.152Z,23.40
2023-01-20T03:27:34.706Z,25.00
2023-01-20T03:30:22.648Z,24.50
2023-01-20T03:33:10.569Z,23.83
2023-01-20T03:35:58.034Z,24.83
2023-01-20T03:38:45.818Z,25.90
2023-01-20T03:41:41.706Z,25.00
2023-01-20T03:44:44.449Z,24.23
2023-01-20T03:47:39.599Z,25.80
2023-01-20T03:50:32.608Z,23.97
2023-01-20T03:53:19.924Z,25.40
2023-01-20T03:56:07.378Z,25.73
2023-01-20T03:58:56.503Z,24.47
2023-01-20T04:01:45.053Z,24.43
2023-01-20T04:04:34.896Z,24.57
2023-01-20T04:07:23.774Z,26.50
2023-01-20T04:10:13.580Z,25.90
2023-01-20T04:13:00.952Z,25.23
2023-01-20T04:15:48.387Z,24.50
2023-01-20T04:18:40.681Z,25.70
2023-01-20T04:21:31.111Z,27.73
2023-01-20T04:24:27.153Z,24.70
2023-01-20T04:27:14.524Z,24.57
2023-01-20T04:30:02.241Z,25.27
2023-01-20T04:32:49.681Z,28.27
2023-01-20T04:35:37.253Z,25.80
2023-01-20T04:38:24.633Z,27.10
2023-01-20T04:41:12.740Z,24.87
2023-01-20T04:44:00.285Z,28.92
2023-01-20T04:46:47.701Z,26.60
2023-01-20T04:49:36.018Z,26.53
2023-01-20T04:52:23.550Z,25.20
2023-01-20T04:55:11.894Z,25.27
2023-01-20T04:57:59.399Z,25.40
2023-01-20T05:00:46.838Z,27.00
2023-01-20T05:03:34.368Z,26.17
2023-01-20T05:06:21.724Z,27.67
2023-01-20T05:09:10.731Z,26.13
2023-01-20T05:11:58.107Z,27.90
2023-01-20T05:14:45.624Z,27.87
2023-01-20T05:17:33.062Z,28.07
2023-01-20T05:20:20.913Z,28.77
2023-01-20T05:23:08.410Z,27.33
2023-01-20T05:25:55.837Z,28.87
2023-01-20T05:28:43.746Z,25.67
2023-01-20T05:31:31.495Z,25.50
2023-01-20T05:34:18.903Z,25.80
2023-01-20T05:37:06.392Z,26.43
2023-01-20T05:39:53.765Z,27.63
2023-01-20T05:42:41.165Z,26.23
2023-01-20T05:45:29.049Z,26.20
2023-01-20T05:48:16.427Z,25.77
2023-01-20T05:51:03.805Z,26.33
2023-01-20T05:53:51.195Z,26.30
2023-01-20T05:56:38.553Z,25.50
2023-01-20T05:59:26.113Z,25.93
2023-01-20T06:02:15.883Z,26.10
2023-01-20T06:05:03.283Z,26.77
2023-01-20T06:07:50.804Z,25.43
2023-01-20T06:10:38.176Z,26.07
2023-01-20T06:13:25.650Z,24.47
2023-01-20T06:16:13.025Z,25.63
2023-01-20T06:19:00.501Z,24.80
2023-01-20T06:21:48.305Z,24.40
2023-01-20T06:24:35.673Z,24.13
2023-01-20T06:27:23.150Z,23.77
2023-01-20T06:30:10.920Z,24.83
2023-01-20T06:32:58.405Z,24.37
2023-01-20T06:35:45.792Z,23.67
2023-01-20T06:38:34.400Z,25.00
2023-01-20T06:41:22.000Z,25.63
2023-01-20T06:44:09.507Z,24.30
2023-01-20T06:46:57.908Z,22.53
2023-01-20T06:49:45.276Z,23.93
2023-01-20T06:52:32.617Z,23.57
2023-01-20T06:55:19.963Z,23.43
2023-01-20T06:58:07.327Z,22.73
2023-01-20T07:00:55.765Z,24.97
2023-01-20T07:03:43.784Z,25.43
2023-01-20T07:06:41.020Z,23.97
2023-01-20T07:09:28.505Z,23.13
2023-01-20T07:12:15.957Z,27.70
2023-01-20T07:15:03.407Z,22.33
2023-01-20T07:17:50.775Z,22.13
2023-01-20T07:20:38.762Z,22.63
2023-01-20T07:23:26.260Z,22.27
2023-01-20T07:26:17.814Z,23.67
2023-01-20T07:29:05.348Z,21.97
2023-01-20T07:31:52.810Z,23.57
2023-01-20T07:34:40.219Z,23.03
2023-01-20T07:37:27.640Z,23.47
2023-01-20T07:40:15.123Z,21.03
2023-01-20T07:43:05.527Z,22.77
2023-01-20T07:45:59.619Z,21.83
2023-01-20T07:48:47.181Z,21.27
2023-01-20T07:51:34.685Z,20.63
2023-01-20T07:54:22.136Z,20.73
2023-01-20T07:57:09.607Z,20.87
2023-01-20T07:59:56.980Z,19.77
2023-01-20T08:02:44.342Z,21.30
2023-01-20T08:05:32.978Z,19.23
2023-01-20T08:08:20.360Z,20.63
2023-01-20T08:11:08.163Z,19.50
2023-01-20T08:13:55.849Z,21.00
2023-01-20T08:16:43.370Z,19.83
2023-01-20T08:19:30.748Z,20.47
2023-01-20T08:22:18.170Z,21.50
2023-01-20T08:25:05.666Z,19.10
2023-01-20T08:27:53.049Z,20.27
2023-01-20T08:30:40.637Z,18.73
2023-01-20T08:33:28.021Z,18.67
2023-01-20T08:36:16.985Z,18.67
2023-01-20T08:39:05.590Z,19.87
2023-01-20T08:41:52.987Z,20.27
2023-01-20T08:44:40.374Z,18.77
2023-01-20T08:47:27.788Z,19.43
2023-01-20T08:50:15.582Z,19.23
2023-01-20T08:53:02.957Z,19.30
2023-01-20T08:55:57.420Z,15.97
2023-01-20T08:58:44.979Z,20.13
2023-01-20T09:01:35.724Z,18.50
2023-01-20T09:04:23.112Z,19.17
2023-01-20T09:07:13.564Z,19.87
2023-01-20T09:10:01.016Z,18.90
2023-01-20T09:12:48.559Z,17.30
2023-01-20T09:15:36.122Z,17.23
2023-01-20T09:18:23.551Z,17.00
2023-01-20T09:21:11.123Z,17.17
2023-01-20T09:23:58.534Z,15.90
2023-01-20T09:26:45.911Z,15.83
2023-01-20T09:29:33.279Z,15.83
2023-01-20T09:32:20.658Z,16.03
2023-01-20T09:35:08.190Z,14.90
2023-01-20T09:38:14.359Z,15.80
2023-01-20T09:41:26.271Z,14.93
2023-01-20T09:44:18.899Z,14.60
2023-01-20T09:47:26.027Z,15.90
2023-01-20T09:50:32.203Z,14.97
2023-01-20T09:53:30.141Z,17.07
2023-01-20T09:56:18.872Z,15.10
2023-01-20T09:59:10.597Z,14.73
2023-01-20T10:02:00.868Z,13.80
2023-01-20T10:05:07.219Z,15.90
2023-01-20T10:08:01.870Z,15.80
2023-01-20T10:10:57.996Z,16.20
2023-01-20T10:13:58.561Z,14.37
2023-01-20T10:17:09.010Z,15.83
2023-01-20T10:20:02.503Z,15.60
2023-01-20T10:22:54.208Z,15.67
2023-01-20T10:25:47.602Z,15.27
2023-01-20T10:28:38.256Z,16.03
2023-01-20T10:31:30.642Z,16.50
2023-01-20T10:34:22.538Z,15.17
2023-01-20T10:37:11.143Z,15.80
2023-01-20T10:40:07.421Z,14.57
2023-01-20T10:42:59.112Z,14.47
2023-01-20T10:46:05.343Z,15.60
2023-01-20T10:49:11.433Z,15.00
2023-01-20T10:52:17.754Z,14.83
2023-01-20T10:55:18.842Z,15.23
2023-01-20T10:58:26.584Z,13.70
2023-01-20T11:01:15.625Z,13.17
2023-01-20T11:04:03.051Z,14.50
2023-01-20T11:06:55.093Z,14.27
2023-01-20T11:09:42.683Z,13.60
2023-01-20T11:12:33.701Z,14.53
2023-01-20T11:15:21.145Z,14.47
2023-01-20T11:18:14.472Z,14.63
2023-01-20T11:21:05.028Z,15.30
2023-01-20T11:23:53.118Z,14.00
2023-01-20T11:26:40.536Z,14.73
2023-01-20T11:29:29.749Z,13.27
2023-01-20T11:32:37.048Z,14.67
2023-01-20T11:35:25.514Z,15.20
2023-01-20T11:38:26.690Z,15.87
2023-01-20T11:41:21.165Z,14.93
2023-01-20T11:44:10.041Z,15.33
2023-01-20T11:46:58.673Z,13.90
2023-01-20T11:49:46.948Z,16.97
2023-01-20T11:52:39.523Z,16.20
2023-01-20T11:55:27.773Z,15.77
2023-01-20T11:58:20.678Z,15.83
2023-01-20T12:01:10.945Z,15.77
2023-01-20T12:04:01.147Z,15.50
2023-01-20T12:06:55.281Z,15.43
2023-01-20T12:09:45.406Z,17.07
2023-01-20T12:12:40.950Z,15.23
2023-01-20T12:15:32.114Z,15.63
2023-01-20T12:18:37.621Z,14.10
2023-01-20T12:21:27.213Z,15.70
2023-01-20T12:24:49.610Z,16.03
2023-01-20T12:27:43.470Z,16.47
2023-01-20T12:30:41.985Z,15.40
2023-01-20T12:33:31.064Z,16.17
2023-01-20T12:36:28.158Z,15.40
2023-01-20T12:39:18.704Z,15.30
2023-01-20T12:42:16.030Z,16.63
2023-01-20T12:45:22.432Z,15.13
2023-01-20T12:48:27.808Z,16.73
2023-01-20T12:51:36.421Z,14.27
2023-01-20T12:54:23.801Z,14.30
2023-01-20T12:57:11.146Z,14.10
2023-01-20T13:00:17.818Z,14.20
2023-01-20T13:03:08.291Z,13.80
2023-01-20T13:06:14.504Z,15.07
2023-01-20T13:09:19.939Z,15.77
2023-01-20T13:12:13.778Z,15.10
2023-01-20T13:15:15.304Z,15.80
2023-01-20T13:18:02.709Z,14.23
2023-01-20T13:20:50.342Z,14.33
2023-01-20T13:23:37.995Z,14.70
2023-01-20T13:26:27.547Z,13.80
2023-01-20T13:29:22.537Z,13.57
2023-01-20T13:32:28.716Z,15.10
2023-01-20T13:35:16.343Z,14.10
2023-01-20T13:38:04.304Z,15.07
2023-01-20T13:40:52.864Z,14.43
2023-01-20T13:43:43.244Z,15.17
2023-01-20T13:46:36.896Z,14.37
2023-01-20T13:49:25.761Z,14.17
2023-01-20T13:52:13.400Z,14.63
2023-01-20T13:55:01.011Z,14.53
2023-01-20T13:57:48.485Z,14.23
2023-01-20T14:00:35.866Z,14.73
2023-01-20T14:03:30.862Z,14.23
2023-01-20T14:06:23.975Z,15.77
2023-01-20T14:09:18.373Z,15.13
2023-01-20T14:12:06.019Z,15.30
2023-01-20T14:14:53.807Z,14.67
2023-01-20T14:17:41.715Z,13.73
2023-01-20T14:20:29.809Z,14.97
2023-01-20T14:23:26.622Z,14.97
2023-01-20T14:26:15.132Z,15.43
2023-01-20T14:29:06.053Z,17.70
2023-01-20T14:31:53.553Z,21.50
2023-01-20T14:34:40.958Z,14.90
2023-01-20T14:37:28.340Z,16.07
2023-01-20T14:40:16.017Z,14.13
2023-01-20T14:43:03.558Z,15.00
2023-01-20T14:45:52.148Z,14.53
2023-01-20T14:48:39.586Z,14.97
2023-01-20T14:51:27.432Z,13.97
2023-01-20T14:54:33.679Z,15.50
2023-01-20T14:57:31.368Z,14.60
2023-01-20T15:00:22.889Z,15.13
2023-01-20T15:03:21.307Z,14.73
2023-01-20T15:06:12.114Z,15.30
2023-01-20T15:09:06.687Z,15.20
2023-01-20T15:12:14.788Z,15.07
2023-01-20T15:15:08.031Z,13.33
2023-01-20T15:18:16.075Z,14.80
2023-01-20T15:21:33.211Z,13.10
2023-01-20T15:24:31.194Z,14.30
2023-01-20T15:27:23.801Z,13.93
2023-01-20T15:30:16.752Z,14.00
2023-01-20T15:33:04.469Z,14.77
2023-01-20T15:36:01.152Z,12.97
2023-01-20T15:38:48.553Z,14.77
2023-01-20T15:41:35.942Z,13.87
2023-01-20T15:44:27.028Z,13.67
2023-01-20T15:47:19.912Z,14.57
2023-01-20T15:50:18.671Z,13.70
2023-01-20T15:53:06.495Z,13.17
2023-01-20T15:55:53.876Z,18.77
2023-01-20T15:58:41.244Z,15.00
2023-01-20T16:01:29.606Z,14.67
2023-01-20T16:04:17.061Z,14.53
2023-01-20T16:07:04.479Z,13.77
2023-01-20T16:09:51.902Z,13.50
2023-01-20T16:12:39.309Z,12.73
2023-01-20T16:15:26.687Z,12.53
2023-01-20T16:18:14.766Z,12.80
2023-01-20T16:21:02.468Z,12.93
2023-01-20T16:23:49.893Z,15.00
2023-01-20T16:26:37.238Z,12.93
2023-01-20T16:29:24.634Z,13.30
2023-01-20T16:32:12.718Z,13.70
2023-01-20T16:35:00.821Z,14.90
2023-01-20T16:37:48.428Z,16.33
2023-01-20T16:40:36.211Z,23.30
2023-01-20T16:43:23.868Z,18.73
2023-01-20T16:46:15.154Z,16.03
2023-01-20T16:49:03.422Z,18.03
2023-01-20T16:51:50.811Z,16.57
2023-01-20T16:54:38.641Z,16.23
2023-01-20T16:57:26.067Z,16.27
2023-01-20T17:00:15.058Z,16.70
2023-01-20T17:03:04.396Z,15.50
2023-01-20T17:05:51.745Z,16.13
2023-01-20T17:08:39.192Z,13.87
2023-01-20T17:11:27.848Z,14.87
2023-01-20T17:14:15.647Z,13.73
2023-01-20T17:17:03.059Z,15.53
2023-01-20T17:19:50.480Z,15.70
2023-01-20T17:22:38.460Z,16.10
2023-01-20T17:25:26.311Z,14.93
2023-01-20T17:28:13.690Z,15.60
2023-01-20T17:31:05.100Z,15.33
2023-01-20T17:33:52.664Z,14.57
2023-01-20T17:36:40.040Z,15.47
2023-01-20T17:39:27.461Z,15.13
2023-01-20T17:42:17.492Z,15.30
2023-01-20T17:45:05.861Z,14.37
2023-01-20T17:47:53.251Z,14.20
2023-01-20T17:50:40.730Z,14.37
2023-01-20T17:53:28.100Z,14.47
2023-01-20T17:56:16.231Z,14.40
2023-01-20T17:59:03.603Z,14.07
2023-01-20T18:01:52.463Z,13.90
2023-01-20T18:04:40.010Z,13.67
2023-01-20T18:07:27.416Z,14.60
2023-01-20T18:10:15.182Z,15.53
2023-01-20T18:13:02.688Z,15.40
2023-01-20T18:15:50.106Z,15.27
2023-01-20T18:18:37.825Z,15.17
2023-01-20T18:21:26.587Z,15.33
2023-01-20T18:24:14.026Z,15.83
2023-01-20T18:27:01.730Z,15.17
2023-01-20T18:29:50.242Z,14.03
2023-01-20T18:32:37.900Z,14.00
2023-01-20T18:35:25.301Z,14.43
2023-01-20T18:38:12.654Z,15.50
2023-01-20T18:41:01.108Z,15.90
2023-01-20T18:43:48.983Z,14.73
2023-01-20T18:46:36.451Z,15.40
2023-01-20T18:49:23.814Z,14.73
2023-01-20T18:52:11.212Z,15.50
2023-01-20T18:54:58.598Z,14.93
2023-01-20T18:57:45.934Z,14.40
2023-01-20T19:00:33.271Z,15.00
2023-01-20T19:03:20.696Z,17.13
2023-01-20T19:06:10.828Z,16.57
2023-01-20T19:08:59.162Z,18.17
2023-01-20T19:11:46.524Z,15.87
2023-01-20T19:14:33.886Z,17.17
2023-01-20T19:17:21.254Z,17.30
2023-01-20T19:20:09.248Z,15.73
2023-01-20T19:22:56.638Z,15.73
2023-01-20T19:25:44.033Z,18.03
2023-01-20T19:28:31.482Z,18.00
2023-01-20T19:31:19.885Z,17.07
2023-01-20T19:34:08.369Z,18.70
2023-01-20T19:36:56.694Z,17.23
2023-01-20T19:39:44.109Z,16.67
2023-01-20T19:42:32.719Z,17.87
2023-01-20T19:45:20.420Z,17.17
2023-01-20T19:48:07.780Z,15.87
2023-01-20T19:50:55.283Z,17.43
2023-01-20T19:53:43.395Z,16.23
2023-01-20T19:56:32.236Z,16.93
2023-01-20T19:59:19.663Z,17.57
2023-01-20T20:02:08.944Z,16.53
2023-01-20T20:04:56.370Z,16.63
2023-01-20T20:07:43.826Z,18.10
2023-01-20T20:10:31.198Z,20.43
2023-01-20T20:13:18.604Z,18.53
2023-01-20T20:16:06.384Z,18.77
2023-01-20T20:18:54.180Z,17.43
2023-01-20T20:21:41.577Z,16.33
2023-01-20T20:24:28.963Z,19.10
2023-01-20T20:27:16.316Z,17.30
2023-01-20T20:30:06.493Z,15.83
2023-01-20T20:32:53.836Z,16.03
2023-01-20T20:35:41.251Z,18.17
2023-01-20T20:38:28.615Z,17.70
2023-01-20T20:41:15.992Z,17.10
2023-01-20T20:44:03.447Z,17.00
2023-01-20T20:46:50.915Z,16.33
2023-01-20T20:49:38.330Z,16.93
2023-01-20T20:52:25.783Z,16.63
2023-01-20T20:55:13.298Z,19.40
2023-01-20T20:58:00.680Z,18.40
2023-01-20T21:00:51.343Z,19.43
2023-01-20T21:03:38.848Z,19.20
2023-01-20T21:06:26.552Z,20.07
2023-01-20T21:09:13.961Z,19.30
2023-01-20T21:12:01.742Z,16.93
2023-01-20T21:14:49.054Z,18.20
2023-01-20T21:17:36.415Z,17.77
2023-01-20T21:20:23.783Z,18.30
2023-01-20T21:23:11.140Z,16.47
2023-01-20T21:26:02.451Z,16.83
2023-01-20T21:28:50.115Z,15.47
2023-01-20T21:31:37.668Z,17.57
2023-01-20T21:34:25.049Z,16.00
2023-01-20T21:37:12.440Z,15.93
2023-01-20T21:39:59.801Z,18.33
2023-01-20T21:42:47.228Z,17.73
2023-01-20T21:45:34.554Z,16.73
2023-01-20T21:48:41.368Z,16.93
2023-01-20T21:51:47.700Z,18.27
2023-01-20T21:54:35.368Z,17.20
2023-01-20T21:57:22.815Z,17.67
2023-01-20T22:00:11.568Z,18.87
2023-01-20T22:02:58.969Z,19.10
2023-01-20T22:05:46.358Z,19.17
2023-01-20T22:08:33.733Z,19.70
2023-01-20T22:11:21.122Z,19.03
2023-01-20T22:14:09.823Z,18.67
2023-01-20T22:16:57.863Z,18.00
2023-01-20T22:19:45.219Z,19.03
2023-01-20T22:22:32.598Z,19.63
2023-01-20T22:25:19.963Z,19.57
2023-01-20T22:28:07.366Z,18.93
2023-01-20T22:30:54.827Z,20.43
2023-01-20T22:33:42.210Z,17.93
2023-01-20T22:36:29.594Z,19.23
2023-01-20T22:39:17.330Z,19.63
2023-01-20T22:42:04.775Z,19.90
2023-01-20T22:44:52.192Z,18.47
2023-01-20T22:47:39.537Z,17.87
2023-01-20T22:50:26.935Z,21.53
2023-01-20T22:53:14.605Z,18.27
2023-01-20T22:56:03.404Z,18.77
2023-01-20T22:58:51.132Z,18.17
2023-01-20T23:01:38.485Z,17.03
2023-01-20T23:04:25.886Z,19.40
2023-01-20T23:07:14.235Z,18.50
2023-01-20T23:10:01.579Z,17.30
2023-01-20T23:12:51.370Z,18.13
2023-01-20T23:15:38.946Z,18.67
2023-01-20T23:18:26.499Z,18.13
2023-01-20T23:21:13.873Z,17.57
2023-01-20T23:24:01.720Z,16.83
2023-01-20T23:26:49.040Z,18.77
2023-01-20T23:29:37.243Z,17.47
2023-01-20T23:32:24.674Z,17.50
2023-01-20T23:35:12.206Z,16.80
2023-01-20T23:37:59.569Z,16.43
2023-01-20T23:40:49.114Z,17.27
2023-01-20T23:43:36.502Z,17.27
2023-01-20T23:46:23.880Z,17.60
2023-01-20T23:49:11.253Z,18.17
2023-01-20T23:51:58.601Z,18.57
2023-01-20T23:54:46.017Z,17.87
2023-01-20T23:57:33.340Z,17.63
